createdAt,value
2017-06-25T00:05:18.856Z,8.50
2017-06-25T00:07:47.097Z,8.10
2017-06-25T00:10:15.353Z,7.40
2017-06-25T00:12:43.652Z,7.50
2017-06-25T00:15:11.906Z,7.90
2017-06-25T00:17:40.154Z,7.93
2017-06-25T00:20:08.457Z,7.77
2017-06-25T00:22:36.703Z,9.43
2017-06-25T00:25:04.967Z,7.63
2017-06-25T00:27:33.287Z,7.73
2017-06-25T00:30:01.529Z,8.67
2017-06-25T00:32:33.137Z,7.47
2017-06-25T00:35:01.385Z,8.00
2017-06-25T00:37:29.635Z,8.43
2017-06-25T00:39:57.917Z,8.40
2017-06-25T00:42:26.169Z,7.73
2017-06-25T00:47:54.799Z,8.27
2017-06-25T00:50:23.043Z,7.60
2017-06-25T00:52:56.933Z,8.00
2017-06-25T00:55:25.207Z,7.60
2017-06-25T01:04:01.060Z,8.70
2017-06-25T01:06:29.303Z,7.47
2017-06-25T01:08:58.346Z,8.73
2017-06-25T01:17:26.864Z,7.90
2017-06-25T01:19:55.127Z,8.10
2017-06-25T01:22:23.385Z,8.00
2017-06-25T01:24:51.662Z,8.00
2017-06-25T01:27:19.916Z,6.60
2017-06-25T01:29:48.931Z,7.97
2017-06-25T01:32:17.223Z,8.53
2017-06-25T01:34:45.493Z,8.23
2017-06-25T01:37:13.731Z,7.83
2017-06-25T01:39:42.055Z,8.90
2017-06-25T01:48:12.233Z,7.70
2017-06-25T01:50:40.467Z,8.23
2017-06-25T01:53:08.710Z,8.00
2017-06-25T02:01:38.101Z,7.60
2017-06-25T02:04:06.334Z,7.90
2017-06-25T02:06:34.719Z,8.00
2017-06-25T02:21:05.929Z,6.83
2017-06-25T02:27:00.416Z,7.47
2017-06-25T02:29:28.680Z,8.30
2017-06-25T02:31:56.906Z,7.40
2017-06-25T02:34:25.962Z,7.70
2017-06-25T02:39:54.431Z,7.43
2017-06-25T02:42:22.674Z,8.00
2017-06-25T02:44:51.689Z,6.73
2017-06-25T02:47:19.965Z,7.77
2017-06-25T02:49:48.217Z,7.43
2017-06-25T02:55:16.974Z,7.40
2017-06-25T02:57:45.225Z,8.10
2017-06-25T03:00:13.458Z,7.03
2017-06-25T03:02:41.728Z,7.33
2017-06-25T03:08:10.013Z,7.60
2017-06-25T03:10:38.254Z,7.87
2017-06-25T03:13:06.492Z,8.43
2017-06-25T03:15:34.771Z,7.97
2017-06-25T03:18:03.801Z,7.93
2017-06-25T03:20:51.577Z,7.57
2017-06-25T03:23:19.822Z,8.00
2017-06-25T03:25:48.086Z,7.57
2017-06-25T03:28:16.373Z,7.80
2017-06-25T03:30:44.602Z,6.83
2017-06-25T03:39:14.622Z,7.87
2017-06-25T03:41:43.147Z,7.30
2017-06-25T03:44:11.396Z,7.40
2017-06-25T03:49:40.294Z,7.77
2017-06-25T03:52:08.842Z,7.17
2017-06-25T03:54:37.143Z,7.27
2017-06-25T03:57:05.421Z,7.57
2017-06-25T03:59:33.688Z,6.37
2017-06-25T04:02:01.947Z,9.47
2017-06-25T04:04:30.246Z,7.80
2017-06-25T04:06:58.501Z,7.27
2017-06-25T04:09:27.101Z,10.23
2017-06-25T04:13:09.424Z,7.53
2017-06-25T04:30:59.545Z,7.13
2017-06-25T04:33:27.807Z,7.17
2017-06-25T04:35:56.097Z,7.30
2017-06-25T04:38:24.368Z,6.87
2017-06-25T04:40:52.681Z,7.97
2017-06-25T04:46:21.603Z,6.77
2017-06-25T04:48:49.870Z,7.00
2017-06-25T04:51:18.169Z,7.03
2017-06-25T04:53:46.451Z,6.90
2017-06-25T04:56:14.708Z,6.40
2017-06-25T05:01:42.930Z,6.50
2017-06-25T05:04:11.964Z,6.47
2017-06-25T05:06:40.267Z,6.50
2017-06-25T05:09:08.547Z,5.40
2017-06-25T05:14:37.339Z,6.00
2017-06-25T05:17:05.572Z,6.70
2017-06-25T05:19:34.559Z,6.47
2017-06-25T05:22:03.614Z,6.77
2017-06-25T05:24:59.758Z,7.03
2017-06-25T05:27:28.069Z,6.20
2017-06-25T05:29:56.314Z,5.90
2017-06-25T05:32:24.614Z,6.10
2017-06-25T05:34:53.602Z,5.33
2017-06-25T05:37:21.858Z,5.90
2017-06-25T05:58:01.026Z,5.00
2017-06-25T06:00:30.079Z,4.87
2017-06-25T06:02:58.330Z,4.80
2017-06-25T06:08:42.731Z,5.83
2017-06-25T06:11:10.969Z,5.73
2017-06-25T06:13:39.216Z,4.97
2017-06-25T06:16:07.517Z,5.63
2017-06-25T06:18:35.798Z,5.90
2017-06-25T06:24:04.391Z,5.10
2017-06-25T06:26:32.622Z,4.73
2017-06-25T06:29:00.887Z,5.20
2017-06-25T06:31:29.158Z,5.67
2017-06-25T06:58:02.590Z,6.67
2017-06-25T07:00:30.829Z,5.20
2017-06-25T07:02:59.107Z,4.87
2017-06-25T07:17:29.976Z,4.33
2017-06-25T07:31:59.787Z,4.27
2017-06-25T07:34:28.089Z,4.30
2017-06-25T07:36:56.345Z,4.07
2017-06-25T07:39:25.406Z,3.90
2017-06-25T07:41:53.668Z,3.97
2017-06-25T07:44:21.904Z,4.10
2017-06-25T07:52:49.837Z,4.10
2017-06-25T08:40:32.786Z,3.40
2017-06-25T08:43:01.091Z,3.80
2017-06-25T09:33:38.492Z,2.70
2017-06-25T09:57:09.418Z,2.80
2017-06-25T09:59:37.646Z,3.20
2017-06-25T10:02:05.886Z,2.83
2017-06-25T10:10:35.251Z,3.20
2017-06-25T10:13:03.603Z,3.63
2017-06-25T10:15:32.029Z,3.10
2017-06-25T10:18:00.270Z,3.00
2017-06-25T10:20:42.206Z,3.37
2017-06-25T10:23:10.461Z,3.30
2017-06-25T10:25:39.559Z,3.70
2017-06-25T10:28:07.835Z,3.37
2017-06-25T10:30:36.066Z,3.73
2017-06-25T10:39:04.673Z,3.60
2017-06-25T10:41:32.932Z,3.20
2017-06-25T10:44:01.198Z,3.00
2017-06-25T11:19:59.770Z,3.60
2017-06-25T11:22:28.006Z,2.90
2017-06-25T11:24:56.253Z,3.07
2017-06-25T11:27:24.519Z,3.50
2017-06-25T11:30:01.248Z,3.50
2017-06-25T11:32:59.916Z,3.77
2017-06-25T11:35:28.213Z,4.00
2017-06-25T11:37:56.462Z,4.23
2017-06-25T11:40:24.733Z,3.60
2017-06-25T11:52:01.183Z,3.00
2017-06-25T11:54:29.462Z,3.43
2017-06-25T12:18:02.429Z,4.10
2017-06-25T12:20:30.704Z,4.70
2017-06-25T12:22:58.968Z,4.00
2017-06-25T12:31:28.609Z,3.80
2017-06-25T12:33:56.851Z,4.50
2017-06-25T12:36:25.104Z,4.87
2017-06-25T12:39:01.323Z,3.70
2017-06-25T12:41:29.548Z,4.00
2017-06-25T12:43:57.789Z,3.83
2017-06-25T12:46:26.078Z,4.20
2017-06-25T12:48:54.328Z,4.10
2017-06-25T12:51:22.623Z,3.30
2017-06-25T13:02:52.557Z,4.93
2017-06-25T13:05:21.546Z,3.90
2017-06-25T13:08:03.179Z,3.60
2017-06-25T13:19:33.170Z,3.63
2017-06-25T13:28:02.125Z,3.40
2017-06-25T13:30:30.374Z,3.77
2017-06-25T13:32:58.650Z,4.47
2017-06-25T13:41:27.927Z,3.00
2017-06-25T13:43:56.165Z,3.07
2017-06-25T13:46:24.503Z,3.80
2017-06-25T13:48:52.776Z,3.80
2017-06-25T13:51:21.019Z,3.53
2017-06-25T13:53:49.292Z,3.67
2017-06-25T13:56:17.543Z,3.10
2017-06-25T13:58:45.831Z,3.80
2017-06-25T14:01:14.068Z,3.27
2017-06-25T14:09:43.314Z,3.30
2017-06-25T14:12:11.553Z,3.60
2017-06-25T14:14:40.613Z,3.50
2017-06-25T14:23:09.887Z,3.00
2017-06-25T15:02:01.337Z,4.60
2017-06-25T15:31:49.836Z,3.87
2017-06-25T15:40:00.819Z,4.00
2017-06-25T16:25:01.230Z,3.50
2017-06-25T16:27:29.527Z,3.20
2017-06-25T16:57:01.862Z,3.33
2017-06-25T17:03:00.889Z,3.13
2017-06-25T17:11:29.915Z,3.20
2017-06-25T17:13:58.178Z,3.93
2017-06-25T17:16:26.428Z,3.00
2017-06-25T17:21:55.608Z,2.53
2017-06-25T17:24:23.868Z,2.60
2017-06-25T17:26:52.896Z,3.13
2017-06-25T17:29:47.080Z,2.70
2017-06-25T17:50:17.130Z,2.87
2017-06-25T17:52:45.381Z,3.07
2017-06-25T17:55:13.671Z,2.93
2017-06-25T17:57:41.983Z,3.10
2017-06-25T18:00:10.239Z,3.00
2017-06-25T18:05:38.427Z,3.10
2017-06-25T18:08:06.690Z,3.40
2017-06-25T18:10:34.956Z,2.87
2017-06-25T18:19:04.001Z,3.33
2017-06-25T18:21:32.361Z,3.70
2017-06-25T18:27:01.862Z,5.70
2017-06-25T18:32:31.468Z,3.83
2017-06-25T18:34:59.763Z,4.53
2017-06-25T18:37:28.841Z,3.70
2017-06-25T18:39:57.105Z,3.07
2017-06-25T18:45:26.733Z,3.70
2017-06-25T18:47:54.982Z,3.07
2017-06-25T18:50:23.267Z,3.23
2017-06-25T18:52:51.533Z,3.17
2017-06-25T19:07:21.337Z,3.10
2017-06-25T19:13:02.917Z,3.30
2017-06-25T19:15:31.148Z,2.70
2017-06-25T19:18:00.158Z,2.60
2017-06-25T19:20:28.447Z,3.63
2017-06-25T19:25:57.777Z,2.87
2017-06-25T19:40:28.414Z,3.23
2017-06-25T19:48:58.046Z,3.23
2017-06-25T20:00:28.255Z,3.50
2017-06-25T20:02:56.497Z,3.60
2017-06-25T20:11:26.075Z,2.77
2017-06-25T20:13:54.316Z,3.33
2017-06-25T20:16:22.558Z,3.10
2017-06-25T20:18:50.834Z,2.80
2017-06-25T20:24:20.498Z,2.80
2017-06-25T20:26:48.758Z,3.50
2017-06-25T20:29:17.040Z,3.53
2017-06-25T20:31:45.293Z,3.30
2017-06-25T20:34:39.004Z,3.20
2017-06-25T21:10:13.206Z,3.60
2017-06-25T21:12:41.430Z,3.83
2017-06-25T21:15:09.688Z,3.83
2017-06-25T21:21:00.361Z,3.63
2017-06-25T21:23:28.640Z,2.97
2017-06-25T21:25:56.863Z,2.80
2017-06-25T21:28:25.172Z,3.30
2017-06-25T21:30:54.169Z,2.80
2017-06-25T21:42:24.102Z,3.40
2017-06-25T21:44:52.331Z,3.70
2017-06-25T22:05:23.724Z,3.47
2017-06-25T22:07:52.004Z,3.60
2017-06-25T22:10:20.260Z,3.70
2017-06-25T22:18:49.739Z,2.90
2017-06-25T22:21:18.004Z,3.60
2017-06-25T22:23:46.274Z,3.60
2017-06-25T22:26:14.557Z,3.40
2017-06-25T22:37:43.980Z,3.53
2017-06-25T22:40:12.210Z,3.90
2017-06-25T22:43:01.259Z,4.57
2017-06-25T22:48:30.544Z,3.83
2017-06-25T22:50:58.781Z,3.60
2017-06-25T22:53:27.803Z,3.87
2017-06-25T23:16:59.940Z,4.60
2017-06-25T23:19:28.205Z,3.97
2017-06-25T23:21:56.510Z,3.77
2017-06-25T23:30:25.246Z,3.80
2017-06-25T23:32:53.490Z,4.30
2017-06-25T23:41:23.076Z,4.17
2017-06-25T23:43:52.070Z,4.27
2017-06-25T23:46:21.095Z,5.20
2017-06-25T23:48:49.348Z,4.63
2017-06-25T23:57:19.938Z,2.83
